Terminal Aerodrome Forecast
Issued by NWS North Platte, NE

Home | Current Version | Previous Version | Text Only | Print | Product List | Glossary On
Versions: 1 2 3 4 5 6 7 8 9 10 11 12 13 14
000
FTUS43 KLBF 250500
TAFVTN
TAF
KVTN 250520Z 2506/2606 VRB03KT P6SM SCT100 BKN200
     FM251200 VRB05KT P6SM SCT250
     FM260000 12009KT P6SM SCT120 BKN200=

USA.gov is the U.S. government's official web portal to all federal, state and local government web resources and services.